Time;durP1;ratioP1;P1;durP2;ratioP2;P2;SDS_P1;SDS_P2;PMS_P1;PMS_P2;Temp;Humidity;BMP_temperature;BMP_pressure;BME280_temperature;BME280_humidity;BME280_pressure;Samples;Min_cycle;Max_cycle;Signal;HPM_P1;HPM_P2
2022/06/03 00:02:18;;;;;;;16.20;9.50;;;;;;;7.86;73.63;99572.52;2305858;77;20906;-78
2022/06/03 00:05:19;;;;;;;15.30;9.27;;;;;;;7.83;73.74;99579.80;2305195;77;20960;-78
2022/06/03 00:08:19;;;;;;;12.60;8.97;;;;;;;7.79;73.72;99578.31;2304081;77;21406;-79
2022/06/03 00:11:20;;;;;;;13.33;8.33;;;;;;;7.77;73.78;99577.38;2304753;77;20995;-77
2022/06/03 00:14:20;;;;;;;14.70;8.33;;;;;;;7.72;73.81;99575.03;2306248;77;20945;-80
2022/06/03 00:17:20;;;;;;;13.40;8.00;;;;;;;7.70;73.96;99578.88;2305814;77;20913;-79
2022/06/03 00:20:21;;;;;;;12.00;8.30;;;;;;;7.67;73.84;99571.86;2305747;77;20917;-78
2022/06/03 00:23:21;;;;;;;17.43;8.20;;;;;;;7.63;73.65;99567.39;2306105;77;20940;-78
2022/06/03 00:26:22;;;;;;;9.37;7.73;;;;;;;7.55;73.56;99568.83;2305823;77;21407;-79
2022/06/03 00:29:22;;;;;;;11.07;7.87;;;;;;;7.50;73.59;99572.10;2305910;77;20910;-78
2022/06/03 00:32:23;;;;;;;16.27;7.97;;;;;;;7.45;73.64;99563.27;2305870;77;20961;-78
2022/06/03 00:35:23;;;;;;;10.53;7.87;;;;;;;7.43;73.85;99566.22;2305876;77;21335;-78
2022/06/03 00:38:23;;;;;;;10.53;7.47;;;;;;;7.44;74.18;99567.57;2305631;77;20966;-79
2022/06/03 00:41:27;;;;;;;9.70;6.83;;;;;;;7.41;73.97;99563.98;2306038;77;20941;-78
2022/06/03 00:44:27;;;;;;;10.73;6.80;;;;;;;7.38;73.89;99558.27;2305867;77;20922;-79
2022/06/03 00:47:28;;;;;;;9.27;6.67;;;;;;;7.30;73.69;99560.58;2306555;77;20952;-81
2022/06/03 00:50:28;;;;;;;8.27;6.57;;;;;;;7.26;74.14;99561.72;2306089;77;21292;-80
2022/06/03 00:53:28;;;;;;;8.90;6.13;;;;;;;7.24;74.08;99558.18;2305991;77;20969;-80
2022/06/03 00:56:29;;;;;;;10.13;6.83;;;;;;;7.21;74.08;99556.77;2305992;77;20964;-83
2022/06/03 00:59:29;;;;;;;9.60;6.20;;;;;;;7.18;74.26;99560.14;2306593;77;21324;-82
2022/06/03 01:02:30;;;;;;;9.30;6.50;;;;;;;7.16;74.19;99558.31;2305913;77;20898;-79
2022/06/03 01:05:30;;;;;;;18.43;6.67;;;;;;;7.13;74.07;99560.80;2305888;77;20934;-79
2022/06/03 01:08:30;;;;;;;6.97;6.17;;;;;;;7.09;74.14;99559.80;2305749;77;20937;-79
2022/06/03 01:11:31;;;;;;;9.17;6.00;;;;;;;7.06;74.16;99553.62;2305851;77;21297;-79
2022/06/03 01:14:31;;;;;;;7.07;6.37;;;;;;;7.01;74.13;99555.62;2305933;77;20941;-79
2022/06/03 01:17:32;;;;;;;52.03;38.00;;;;;;;6.97;74.14;99559.35;2305658;77;20972;-79
2022/06/03 01:20:32;;;;;;;58.27;41.07;;;;;;;6.95;74.43;99564.90;2305901;77;20945;-81
2022/06/03 01:23:32;;;;;;;20.00;9.73;;;;;;;6.94;74.65;99558.82;2305820;77;21322;-80
2022/06/03 01:26:33;;;;;;;11.23;7.73;;;;;;;6.94;74.62;99554.93;2305554;77;20949;-80
2022/06/03 01:29:33;;;;;;;7.83;6.40;;;;;;;6.90;74.22;99547.83;2305994;77;20941;-79
2022/06/03 01:32:34;;;;;;;7.73;6.80;;;;;;;6.82;74.14;99553.14;2305849;77;21364;-79
2022/06/03 01:35:34;;;;;;;102.97;11.73;;;;;;;6.76;74.29;99552.02;2306143;77;20937;-81
2022/06/03 01:38:36;;;;;;;24.63;6.40;;;;;;;6.74;74.64;99561.05;2306067;77;20890;-80
2022/06/03 01:41:35;;;;;;;8.67;6.77;;;;;;;6.74;74.43;99562.34;2305920;77;20967;-79
2022/06/03 01:44:35;;;;;;;20.53;7.07;;;;;;;6.68;74.32;99555.62;2305775;77;20913;-80
2022/06/03 01:47:36;;;;;;;9.60;6.00;;;;;;;6.69;74.74;99550.91;2306198;77;20952;-80
2022/06/03 01:50:36;;;;;;;13.20;6.03;;;;;;;6.67;74.73;99549.55;2305686;77;20976;-81
2022/06/03 01:53:36;;;;;;;7.70;5.93;;;;;;;6.60;74.42;99550.55;2290458;77;20964;-80
2022/06/03 01:56:37;;;;;;;7.67;5.63;;;;;;;6.53;74.50;99553.73;2229179;80;20975;-80
2022/06/03 01:59:37;;;;;;;9.13;5.70;;;;;;;6.50;74.81;99565.28;2229030;80;20919;-79
2022/06/03 02:02:38;;;;;;;91.60;9.70;;;;;;;6.49;74.97;99564.81;2229040;80;20980;-80
2022/06/03 02:05:38;;;;;;;313.60;22.23;;;;;;;6.50;74.96;99557.50;2227960;80;21276;-80
2022/06/03 02:08:39;;;;;;;15.57;6.63;;;;;;;6.50;74.91;99551.02;2227854;80;20928;-80
2022/06/03 02:11:39;;;;;;;7.87;5.80;;;;;;;6.46;74.70;99556.91;2228797;80;20959;-80
2022/06/03 02:14:43;;;;;;;8.17;5.83;;;;;;;6.41;74.59;99556.73;2229343;80;20964;-80
2022/06/03 02:17:44;;;;;;;6.80;5.83;;;;;;;6.37;74.76;99560.91;2229493;80;20932;-79
2022/06/03 02:20:45;;;;;;;13.67;6.50;;;;;;;6.37;75.11;99566.09;2229181;80;20873;-81
2022/06/03 02:23:46;;;;;;;20.77;7.07;;;;;;;6.39;74.91;99568.75;2229297;80;20955;-79
2022/06/03 02:26:46;;;;;;;11.67;6.03;;;;;;;6.35;74.90;99565.16;2229131;80;21366;-80
2022/06/03 02:33:06;;;;;;;7.60;6.10;;;;;;;6.29;74.91;99569.20;2229258;80;20960;-80
2022/06/03 02:36:06;;;;;;;7.97;6.83;;;;;;;6.28;74.65;99578.69;2229348;80;20908;-80
2022/06/03 02:39:06;;;;;;;243.77;18.23;;;;;;;6.27;74.52;99583.81;2229548;80;20964;-81
2022/06/03 02:42:07;;;;;;;10.90;5.80;;;;;;;6.25;74.74;99586.34;2228808;80;21339;-81
2022/06/03 02:45:07;;;;;;;9.23;5.27;;;;;;;6.29;74.74;99592.13;2229172;80;20888;-80
2022/06/03 02:48:08;;;;;;;6.13;5.27;;;;;;;6.29;74.59;99587.36;2228522;80;21010;-82
2022/06/03 02:51:11;;;;;;;8.57;5.60;;;;;;;6.27;74.52;99593.78;2228426;80;20916;-80
2022/06/03 02:54:12;;;;;;;8.60;5.50;;;;;;;6.27;74.60;99598.97;2228634;78;20984;-80
2022/06/03 02:57:12;;;;;;;6.33;5.73;;;;;;;6.27;74.59;99596.78;2228201;80;20943;-82
2022/06/03 03:00:12;;;;;;;22.03;14.47;;;;;;;6.27;74.39;99592.48;2229339;80;20908;-78
2022/06/03 03:03:13;;;;;;;16.23;6.80;;;;;;;6.28;74.47;99592.07;2229293;80;21272;-82
2022/06/03 03:06:16;;;;;;;7.77;6.17;;;;;;;6.30;74.67;99590.42;2229126;80;20904;-78
2022/06/03 03:09:16;;;;;;;9.57;5.37;;;;;;;6.36;74.63;99603.23;2229301;80;20904;-80
2022/06/03 03:12:19;;;;;;;57.80;8.87;;;;;;;6.39;74.45;99603.34;2229026;80;20975;-80
2022/06/03 03:15:19;;;;;;;52.53;8.57;;;;;;;6.41;74.62;99602.52;2229204;80;20917;-80
2022/06/03 03:18:22;;;;;;;7.53;5.77;;;;;;;6.47;74.67;99604.06;2228770;80;21354;-80
2022/06/03 03:21:22;;;;;;;6.50;5.30;;;;;;;6.52;74.49;99612.92;2228967;80;20931;-80
2022/06/03 03:24:23;;;;;;;7.40;5.30;;;;;;;6.55;74.42;99617.81;2228226;80;20900;-80
2022/06/03 03:27:23;;;;;;;6.63;5.80;;;;;;;6.60;74.56;99620.18;2228969;80;21003;-80
2022/06/03 03:30:24;;;;;;;6.23;5.63;;;;;;;6.72;74.87;99622.38;2227548;80;20904;-81
2022/06/03 03:33:26;;;;;;;323.33;24.37;;;;;;;6.76;74.61;99619.07;2205000;80;21458;-78
2022/06/03 03:36:26;;;;;;;26.93;7.37;;;;;;;6.77;74.49;99624.73;2227760;80;20932;-80
2022/06/03 03:39:27;;;;;;;9.90;5.23;;;;;;;6.79;74.52;99623.09;2228858;80;20994;-79
2022/06/03 03:42:27;;;;;;;22.10;6.40;;;;;;;6.86;74.68;99624.20;2227295;80;21358;-81
2022/06/03 03:45:28;;;;;;;99.53;11.07;;;;;;;6.93;75.00;99627.09;2227800;80;21046;-82
2022/06/03 03:48:28;;;;;;;10.27;5.47;;;;;;;6.95;74.86;99630.67;2226833;80;20959;-82
2022/06/03 03:51:29;;;;;;;39.50;8.50;;;;;;;7.01;74.92;99633.91;2226909;80;21943;-80
2022/06/03 03:54:29;;;;;;;7.27;5.80;;;;;;;7.07;74.99;99636.74;2244107;78;21061;-80
2022/06/03 03:57:29;;;;;;;5.70;5.10;;;;;;;7.17;75.15;99636.68;2279031;78;21044;-81
2022/06/03 04:00:30;;;;;;;6.23;5.13;;;;;;;7.29;75.19;99639.33;2279377;77;21345;-81
2022/06/03 04:03:30;;;;;;;45.70;7.97;;;;;;;7.46;75.27;99645.55;2279003;77;20918;-79
2022/06/03 04:06:31;;;;;;;9.97;5.20;;;;;;;7.87;75.50;99644.06;2279831;77;20922;-80
2022/06/03 04:09:31;;;;;;;8.37;4.90;;;;;;;8.04;74.96;99639.45;2279433;78;21082;-81
2022/06/03 04:12:31;;;;;;;41.90;6.80;;;;;;;8.24;74.90;99638.41;2279485;77;21022;-81
2022/06/03 04:15:32;;;;;;;48.33;8.67;;;;;;;8.51;75.07;99637.16;2281019;77;20948;-81
2022/06/03 04:18:32;;;;;;;7.73;5.07;;;;;;;8.83;75.35;99638.22;2281090;77;21000;-81
2022/06/03 04:21:32;;;;;;;9.63;5.50;;;;;;;9.22;75.30;99635.06;2278673;77;20974;-80
2022/06/03 04:24:33;;;;;;;150.10;100.30;;;;;;;9.48;74.36;99627.58;2277742;77;20985;-80
2022/06/03 04:27:34;;;;;;;16.50;12.03;;;;;;;9.54;73.91;99629.52;2277532;78;20977;-81
2022/06/03 04:30:34;;;;;;;8.00;6.17;;;;;;;9.72;73.98;99625.23;2278118;78;20976;-80
2022/06/03 04:33:34;;;;;;;10.67;5.07;;;;;;;9.86;73.88;99627.37;2278513;78;21041;-81
2022/06/03 04:36:35;;;;;;;7.37;5.10;;;;;;;10.04;74.04;99632.19;2278767;77;21164;-80
2022/06/03 04:39:35;;;;;;;6.80;4.30;;;;;;;10.25;74.46;99637.54;2278385;77;20942;-80
2022/06/03 04:42:36;;;;;;;5.20;4.70;;;;;;;10.55;74.48;99634.42;2278013;78;21001;-80
2022/06/03 04:45:36;;;;;;;48.13;7.30;;;;;;;10.76;74.46;99637.55;2278275;77;20962;-80
2022/06/03 04:48:36;;;;;;;119.10;10.80;;;;;;;11.08;74.52;99633.48;2278174;78;20958;-81
2022/06/03 04:51:37;;;;;;;7.27;4.43;;;;;;;11.45;74.12;99632.58;2278012;78;21759;-80
2022/06/03 04:54:37;;;;;;;5.20;4.53;;;;;;;11.82;73.89;99627.69;2285506;77;21625;-81
2022/06/03 04:57:37;;;;;;;8.78;4.40;;;;;;;12.15;74.25;99623.97;2302092;77;21079;-80
2022/06/03 05:00:38;;;;;;;8.88;5.00;;;;;;;12.49;74.18;99632.84;2301089;77;21054;-80
2022/06/03 05:03:38;;;;;;;11.38;5.20;;;;;;;12.85;73.61;99633.86;2301035;77;21534;-79
2022/06/03 05:06:39;;;;;;;12.25;5.37;;;;;;;13.22;72.69;99631.41;2301627;77;21471;-82
2022/06/03 05:09:39;;;;;;;12.03;5.40;;;;;;;13.58;71.78;99636.67;2301610;77;20973;-79
2022/06/03 05:12:40;;;;;;;24.90;5.85;;;;;;;13.90;70.52;99641.02;2302219;77;20996;-81
2022/06/03 05:15:40;;;;;;;145.77;12.98;;;;;;;14.19;69.75;99637.39;2302095;77;20977;-80
2022/06/03 05:18:40;;;;;;;44.55;7.47;;;;;;;14.47;69.55;99638.56;2302768;77;21440;-80
2022/06/03 05:21:41;;;;;;;80.40;7.60;;;;;;;14.86;69.05;99636.72;2302743;77;20964;-80
2022/06/03 05:24:41;;;;;;;194.22;17.62;;;;;;;15.16;68.39;99639.98;2302839;77;20988;-81
2022/06/03 05:27:42;;;;;;;20.20;5.72;;;;;;;15.52;67.55;99635.34;2302559;77;21483;-81
2022/06/03 05:30:42;;;;;;;26.37;6.33;;;;;;;15.78;66.86;99635.08;2303957;77;20957;-80
2022/06/03 05:33:42;;;;;;;25.02;5.97;;;;;;;16.12;65.69;99637.80;2303815;77;20973;-82
2022/06/03 05:36:43;;;;;;;33.48;5.37;;;;;;;16.51;64.69;99641.84;2304206;77;21305;-81
2022/06/03 05:39:43;;;;;;;17.48;4.97;;;;;;;16.86;63.59;99634.40;2303533;77;20984;-80
2022/06/03 05:42:44;;;;;;;123.50;11.60;;;;;;;17.18;62.07;99639.18;2302151;77;20992;-81
2022/06/03 05:45:44;;;;;;;7.20;3.80;;;;;;;17.50;60.10;99640.88;2302484;77;20945;-79
2022/06/03 05:48:44;;;;;;;6.55;4.22;;;;;;;17.74;59.04;99645.22;2301966;77;20972;-79
2022/06/03 05:51:45;;;;;;;23.40;5.35;;;;;;;17.95;58.04;99645.56;2302129;77;21052;-80
2022/06/03 05:54:45;;;;;;;14.90;4.00;;;;;;;18.10;56.91;99642.84;2302519;77;21103;-80
2022/06/03 05:57:46;;;;;;;4.55;2.87;;;;;;;18.32;56.97;99642.28;2302386;77;21702;-80
2022/06/03 06:00:46;;;;;;;28.77;4.40;;;;;;;18.56;55.55;99642.11;2303185;77;20968;-80
2022/06/03 06:03:46;;;;;;;15.00;3.45;;;;;;;18.72;54.48;99633.64;2302747;77;21016;-81
2022/06/03 06:06:47;;;;;;;10.38;3.90;;;;;;;18.94;53.80;99636.52;2303810;77;21419;-80
2022/06/03 06:09:47;;;;;;;37.45;5.60;;;;;;;19.13;53.07;99641.67;2302801;77;20925;-83
2022/06/03 06:12:48;;;;;;;19.80;3.92;;;;;;;19.31;52.70;99641.48;2302495;77;20988;-81
2022/06/03 06:15:48;;;;;;;171.60;12.58;;;;;;;19.55;52.44;99643.87;2302716;77;20997;-80
2022/06/03 06:18:48;;;;;;;4.15;2.55;;;;;;;19.79;51.18;99636.53;2302615;77;21012;-80
2022/06/03 06:21:49;;;;;;;3.47;2.50;;;;;;;20.00;49.65;99646.42;2302807;77;20945;-80
2022/06/03 06:24:49;;;;;;;2.12;1.92;;;;;;;20.13;49.78;99642.28;2302745;77;21426;-80
2022/06/03 06:27:49;;;;;;;81.57;7.47;;;;;;;20.26;47.80;99636.78;2302922;77;21024;-81
2022/06/03 06:30:50;;;;;;;10.40;2.50;;;;;;;20.43;48.04;99636.56;2303158;77;20956;-81
2022/06/03 06:33:50;;;;;;;2.37;1.97;;;;;;;20.60;47.70;99633.64;2303506;77;21720;-79
2022/06/03 06:36:51;;;;;;;7.42;6.70;;;;;;;20.69;47.38;99634.81;2302175;77;20953;-79
2022/06/03 06:39:51;;;;;;;6.95;2.25;;;;;;;20.89;46.91;99638.04;2302390;77;20953;-79
2022/06/03 06:42:52;;;;;;;1.98;1.67;;;;;;;21.08;45.82;99643.02;2303041;77;20988;-80
2022/06/03 06:45:52;;;;;;;1.85;1.67;;;;;;;21.23;45.14;99637.46;2301740;77;21888;-80
2022/06/03 06:48:52;;;;;;;2.05;1.50;;;;;;;21.35;44.47;99641.67;2301235;77;21272;-80
2022/06/03 06:51:53;;;;;;;5.80;1.92;;;;;;;21.51;44.10;99637.35;2301330;77;21028;-80
2022/06/03 06:54:53;;;;;;;4.00;2.05;;;;;;;21.57;41.95;99633.70;2296049;77;21028;-80
2022/06/03 06:57:54;;;;;;;1.92;1.52;;;;;;;21.68;42.58;99630.85;2278967;78;21972;-80
2022/06/03 07:00:54;;;;;;;8.83;2.33;;;;;;;21.86;42.35;99633.13;2280046;77;20997;-80
2022/06/03 07:03:54;;;;;;;7.62;5.35;;;;;;;21.94;41.86;99638.70;2280980;78;20933;-78
2022/06/03 07:06:55;;;;;;;6.15;3.17;;;;;;;21.99;41.84;99630.63;2280545;77;20973;-79
2022/06/03 07:09:55;;;;;;;10.15;9.13;;;;;;;22.15;41.22;99628.07;2278916;77;21383;-79
2022/06/03 07:12:56;;;;;;;6.03;2.80;;;;;;;22.30;41.64;99629.96;2280063;77;21037;-81
2022/06/03 07:15:56;;;;;;;5.10;1.98;;;;;;;22.47;41.42;99627.78;2281447;77;21392;-79
2022/06/03 07:22:16;;;;;;;7.55;2.55;;;;;;;22.62;39.40;99619.91;2282833;78;21057;-80
2022/06/03 07:25:16;;;;;;;1.70;1.60;;;;;;;22.74;39.66;99620.94;2282170;78;20953;-80
2022/06/03 07:28:16;;;;;;;2.77;2.40;;;;;;;22.73;39.14;99622.72;2281808;77;21020;-80
2022/06/03 07:31:17;;;;;;;9.40;2.62;;;;;;;22.80;39.42;99629.67;2281301;78;20934;-80
2022/06/03 07:34:17;;;;;;;5.47;2.10;;;;;;;22.88;39.69;99623.70;2281873;77;21383;-81
2022/06/03 07:37:18;;;;;;;7.70;3.10;;;;;;;22.93;39.13;99620.91;2281287;78;20953;-80
2022/06/03 07:40:18;;;;;;;17.02;4.35;;;;;;;23.09;39.57;99626.25;2282373;77;20949;-82
2022/06/03 07:43:18;;;;;;;191.50;20.37;;;;;;;23.21;39.10;99618.39;2281715;77;20977;-81
2022/06/03 07:46:19;;;;;;;5.17;2.33;;;;;;;23.38;39.48;99617.47;2281444;78;20954;-81
2022/06/03 07:49:19;;;;;;;2.37;2.17;;;;;;;23.34;39.12;99618.47;2282761;78;20961;-81
2022/06/03 07:52:20;;;;;;;4.28;2.47;;;;;;;23.30;38.65;99619.93;2282803;77;21052;-83
2022/06/03 07:55:20;;;;;;;11.03;10.05;;;;;;;23.35;38.92;99613.56;2288237;77;20992;-84
2022/06/03 07:58:22;;;;;;;6.58;6.00;;;;;;;23.64;38.19;99613.25;2303482;77;21048;-82
2022/06/03 08:01:21;;;;;;;2.80;2.20;;;;;;;23.71;37.93;99609.03;2302158;77;20968;-83
2022/06/03 08:04:22;;;;;;;2.83;2.50;;;;;;;23.80;36.59;99596.77;2302487;77;21363;-80
2022/06/03 08:11:00;;;;;;;2.02;1.92;;;;;;;24.02;36.24;99607.65;2301995;77;20995;-83
2022/06/03 08:13:59;;;;;;;9.65;2.08;;;;;;;24.07;36.16;99606.17;2301885;77;21324;-81
2022/06/03 08:16:59;;;;;;;2.60;1.72;;;;;;;24.01;36.97;99604.56;2301760;77;20964;-81
2022/06/03 08:20:01;;;;;;;6.95;2.05;;;;;;;24.02;35.82;99602.77;2301792;77;21033;-79
2022/06/03 08:23:02;;;;;;;8.25;2.95;;;;;;;24.01;35.37;99600.56;2302075;77;20977;-82
2022/06/03 08:26:02;;;;;;;2.67;2.00;;;;;;;24.11;35.92;99601.16;2301470;77;20980;-81
2022/06/03 08:29:02;;;;;;;4.95;2.30;;;;;;;24.13;35.51;99592.19;2301499;77;20988;-83
2022/06/03 08:32:03;;;;;;;40.48;4.65;;;;;;;24.30;35.44;99591.72;2302039;77;21004;-81
2022/06/03 08:38:05;;;;;;;1.82;1.72;;;;;;;24.86;35.03;99596.09;2115662;83;21033;-81
2022/06/03 08:41:06;;;;;;;1.92;1.70;;;;;;;24.96;33.82;99601.52;2115948;84;21004;-78
2022/06/03 08:44:06;;;;;;;2.02;1.82;;;;;;;24.77;34.29;99598.16;2114408;84;21011;-80
2022/06/03 08:47:12;;;;;;;5.35;2.22;;;;;;;24.84;34.12;99594.81;2116201;84;21037;-81
2022/06/03 08:50:10;;;;;;;1.85;1.70;;;;;;;24.91;34.45;99592.34;2116008;84;21437;-80
2022/06/03 08:53:10;;;;;;;3.72;2.30;;;;;;;25.13;34.35;99596.50;2116242;84;21375;-79
2022/06/03 08:56:11;;;;;;;12.30;11.15;;;;;;;25.29;33.87;99595.05;2116971;84;21511;-82
2022/06/03 08:59:12;;;;;;;10.95;2.92;;;;;;;25.15;33.70;99589.33;2118487;84;21011;-80
2022/06/03 09:02:15;;;;;;;11.22;2.10;;;;;;;24.70;33.91;99589.94;2118687;84;21031;-81
2022/06/03 09:05:14;;;;;;;5.97;2.10;;;;;;;24.24;34.42;99594.98;2095536;84;21522;-80
2022/06/03 09:08:17;;;;;;;2.27;1.72;;;;;;;23.75;35.24;99588.48;2119529;84;20956;-79
2022/06/03 09:11:20;;;;;;;1.77;1.67;;;;;;;24.10;35.16;99581.62;2119096;84;21020;-80
2022/06/03 09:14:18;;;;;;;9.28;3.08;;;;;;;24.12;35.17;99580.23;2118618;84;20933;-80
2022/06/03 09:17:18;;;;;;;1.62;1.50;;;;;;;24.48;33.86;99584.91;2118637;84;21019;-80
2022/06/03 09:20:19;;;;;;;2.50;1.95;;;;;;;24.91;33.50;99586.12;2118730;84;21035;-80
2022/06/03 09:23:19;;;;;;;3.58;1.80;;;;;;;25.18;32.65;99583.01;2119328;84;21654;-81
2022/06/03 09:26:19;;;;;;;2.12;1.75;;;;;;;25.26;32.53;99577.80;2119392;84;20991;-80
2022/06/03 09:29:20;;;;;;;4.22;1.70;;;;;;;24.59;33.65;99572.54;2118811;84;21043;-81
2022/06/03 09:32:20;;;;;;;8.70;3.52;;;;;;;24.61;33.91;99580.91;2118630;84;21443;-82
2022/06/03 09:35:21;;;;;;;1.67;1.57;;;;;;;24.34;34.03;99579.16;2251359;77;20989;-79
2022/06/03 09:38:21;;;;;;;31.45;4.10;;;;;;;24.57;33.76;99583.27;2302513;77;21003;-81
2022/06/03 09:41:22;;;;;;;1.75;1.60;;;;;;;24.95;32.78;99575.75;2302229;77;20960;-82
2022/06/03 09:44:23;;;;;;;1.37;1.27;;;;;;;25.33;32.17;99578.44;2302492;77;20965;-80
2022/06/03 09:47:22;;;;;;;7.20;1.47;;;;;;;25.63;32.04;99567.08;2301669;77;20995;-80
2022/06/03 09:50:23;;;;;;;6.80;1.67;;;;;;;25.91;30.79;99574.94;2302577;77;20968;-80
2022/06/03 09:53:23;;;;;;;2.40;1.20;;;;;;;25.95;29.34;99570.74;2302838;77;21059;-80
2022/06/03 09:56:26;;;;;;;12.50;1.85;;;;;;;25.95;29.08;99571.21;2296978;77;21001;-79
2022/06/03 09:59:24;;;;;;;1.80;1.37;;;;;;;26.06;28.62;99568.14;2288802;77;21689;-80
2022/06/03 10:02:24;;;;;;;1.32;1.22;;;;;;;26.14;29.31;99565.56;2289187;77;20930;-80
2022/06/03 10:05:25;;;;;;;1.20;1.10;;;;;;;26.31;29.32;99556.86;2288720;77;20981;-81
2022/06/03 10:08:28;;;;;;;1.37;1.27;;;;;;;26.46;28.52;99551.37;2287336;77;21495;-81
2022/06/03 10:15:37;;;;;;;1.52;1.20;;;;;;;26.46;28.11;99547.35;2290286;78;20969;-81
2022/06/03 10:17:47;;;;;;;8.25;1.85;;;;;;;26.20;28.05;99541.70;2289382;77;20961;-84
2022/06/03 10:20:48;;;;;;;2.83;1.27;;;;;;;26.27;27.25;99549.88;2289025;77;20925;-80
2022/06/03 10:23:48;;;;;;;15.98;2.83;;;;;;;26.36;25.49;99542.84;2289168;77;21396;-80
2022/06/03 10:26:52;;;;;;;241.17;20.60;;;;;;;25.99;26.53;99549.63;2288614;78;20946;-78
2022/06/03 10:29:52;;;;;;;5.87;1.72;;;;;;;26.10;26.24;99533.18;2288480;77;21024;-81
2022/06/03 10:32:52;;;;;;;2.77;2.05;;;;;;;26.25;26.94;99537.91;2288917;77;21329;-80
2022/06/03 10:35:53;;;;;;;13.95;2.58;;;;;;;26.48;27.01;99537.45;2289851;77;20969;-81
2022/06/03 10:38:53;;;;;;;10.72;9.73;;;;;;;26.56;27.58;99528.16;2289482;78;20957;-81
2022/06/03 10:41:54;;;;;;;2.70;2.50;;;;;;;26.56;26.74;99525.95;2290070;77;20945;-79
2022/06/03 10:44:54;;;;;;;1.32;1.25;;;;;;;26.36;27.41;99529.47;2288578;77;21036;-80
2022/06/03 10:47:55;;;;;;;3.25;1.45;;;;;;;26.32;27.64;99527.38;2288938;77;20965;-82
2022/06/03 10:50:55;;;;;;;2.65;1.30;;;;;;;26.26;27.69;99528.08;2288590;77;20934;-80
2022/06/03 11:03:52;;;;;;;1.32;1.30;;;;;;;26.46;29.01;99520.11;2226387;80;20972;-79
2022/06/03 11:06:53;;;;;;;8.80;1.95;;;;;;;26.59;28.23;99520.00;2226899;80;20963;-80
2022/06/03 11:09:53;;;;;;;1.57;1.47;;;;;;;26.61;28.40;99512.77;2227914;80;20920;-80
2022/06/03 11:12:53;;;;;;;3.33;1.40;;;;;;;26.68;27.93;99511.16;2226943;79;21023;-80
2022/06/03 11:15:54;;;;;;;4.83;4.42;;;;;;;26.50;28.04;99516.38;2226158;80;21370;-80
2022/06/03 11:18:55;;;;;;;7.65;6.50;;;;;;;26.54;27.71;99517.11;2225252;79;20958;-79
2022/06/03 11:21:55;;;;;;;5.80;1.98;;;;;;;26.28;27.89;99506.13;2228034;80;20947;-79
2022/06/03 11:24:55;;;;;;;15.43;2.72;;;;;;;26.47;28.07;99500.44;2226390;80;21100;-81
2022/06/03 11:27:56;;;;;;;17.27;2.75;;;;;;;26.64;27.94;99504.60;2226795;80;21006;-81
2022/06/03 11:30:56;;;;;;;2.42;1.45;;;;;;;26.77;28.01;99498.72;2225899;80;21318;-81
2022/06/03 11:33:56;;;;;;;7.40;1.95;;;;;;;26.73;28.09;99490.41;2225861;80;21035;-81
2022/06/03 11:36:57;;;;;;;14.00;2.70;;;;;;;26.82;28.26;99485.99;2226617;80;20971;-82
2022/06/03 11:39:57;;;;;;;2.70;1.47;;;;;;;26.96;27.73;99487.15;2226592;80;20959;-79
2022/06/03 11:42:58;;;;;;;2.70;1.40;;;;;;;27.08;28.41;99482.21;2226894;80;21378;-79
2022/06/03 11:45:58;;;;;;;2.40;1.40;;;;;;;26.96;28.28;99484.47;2226093;80;20979;-79
2022/06/03 11:48:58;;;;;;;6.12;1.52;;;;;;;26.76;27.80;99487.13;2224573;80;20970;-80
2022/06/03 11:52:00;;;;;;;1.75;1.65;;;;;;;26.61;27.97;99477.96;2226135;80;21029;-78
2022/06/03 11:54:59;;;;;;;1.50;1.40;;;;;;;26.62;28.40;99473.00;2225977;80;21345;-79
2022/06/03 11:58:00;;;;;;;1.72;1.57;;;;;;;26.70;28.53;99475.82;2224203;77;21517;-79
2022/06/03 12:01:01;;;;;;;2.77;1.67;;;;;;;26.81;28.51;99473.53;2224767;80;21446;-80
2022/06/03 12:04:00;;;;;;;1.50;1.40;;;;;;;26.96;28.83;99468.86;2225871;80;21386;-80
2022/06/03 12:07:01;;;;;;;3.20;1.52;;;;;;;26.93;28.07;99459.63;2225729;80;20975;-82
2022/06/03 12:10:01;;;;;;;2.72;1.60;;;;;;;27.00;28.55;99459.78;2225178;80;21154;-82
2022/06/03 12:13:15;;;;;;;3.30;1.52;;;;;;;27.06;28.93;99456.83;2225092;80;21007;-81
2022/06/03 12:16:14;;;;;;;2.67;1.72;;;;;;;27.25;28.32;99452.36;2225207;80;20908;-81
2022/06/03 12:19:14;;;;;;;2.40;1.90;;;;;;;27.43;27.96;99452.44;2225241;80;21648;-79
2022/06/03 12:22:15;;;;;;;2.27;1.85;;;;;;;27.58;27.41;99451.23;2224330;80;20987;-80
2022/06/03 12:25:15;;;;;;;1.80;1.67;;;;;;;27.58;27.41;99451.23;2220954;80;20983;-80
2022/06/03 12:28:16;;;;;;;4.42;1.50;;;;;;;27.28;27.78;99442.83;2224956;80;21027;-78
2022/06/03 12:31:16;;;;;;;4.25;1.80;;;;;;;27.31;28.11;99443.63;2222937;80;20971;-80
2022/06/03 12:34:20;;;;;;;6.97;1.67;;;;;;;27.45;27.60;99442.51;2224278;80;21365;-81
2022/06/03 12:37:17;;;;;;;3.10;1.62;;;;;;;27.46;28.58;99439.75;2226010;80;21011;-80
2022/06/03 12:40:17;;;;;;;1.92;1.80;;;;;;;27.56;27.69;99438.84;2226035;80;20956;-81
2022/06/03 12:43:18;;;;;;;2.45;1.60;;;;;;;27.65;27.88;99426.36;2227116;80;20893;-78
2022/06/03 12:46:18;;;;;;;2.60;1.80;;;;;;;27.58;27.48;99423.55;2225800;80;21019;-79
2022/06/03 12:49:19;;;;;;;7.53;2.40;;;;;;;27.43;27.83;99425.62;2226468;80;20971;-81
2022/06/03 12:52:19;;;;;;;1.80;1.70;;;;;;;27.46;28.33;99418.77;2227370;80;21042;-79
2022/06/03 12:55:20;;;;;;;5.37;1.82;;;;;;;27.67;27.62;99417.77;2227109;80;20916;-81
2022/06/03 12:58:20;;;;;;;8.78;2.12;;;;;;;27.82;26.91;99422.89;2227276;78;21413;-81
2022/06/03 13:01:23;;;;;;;13.55;2.52;;;;;;;27.89;27.10;99421.16;2227280;80;20991;-80
2022/06/03 13:04:21;;;;;;;3.50;1.52;;;;;;;27.96;26.96;99420.39;2226620;80;20943;-79
2022/06/03 13:07:21;;;;;;;1.30;1.20;;;;;;;28.02;26.68;99421.89;2227067;80;21014;-80
2022/06/03 13:10:22;;;;;;;13.48;2.30;;;;;;;27.87;26.56;99412.80;2226758;80;20947;-80
2022/06/03 13:13:24;;;;;;;51.85;5.92;;;;;;;27.40;27.16;99414.58;2226513;80;20978;-80
2022/06/03 13:16:24;;;;;;;3.27;1.60;;;;;;;27.07;27.74;99408.13;2226603;80;20944;-78
2022/06/03 13:19:23;;;;;;;14.55;2.65;;;;;;;27.02;27.88;99398.96;2225354;80;20936;-80
2022/06/03 13:22:23;;;;;;;8.38;2.10;;;;;;;27.24;27.70;99390.31;2226556;80;20967;-81
2022/06/03 13:25:24;;;;;;;5.85;2.40;;;;;;;27.24;27.70;99390.31;2226409;80;20951;-81
2022/06/03 13:28:24;;;;;;;4.78;1.85;;;;;;;27.40;27.99;99392.27;2225406;80;20955;-79
2022/06/03 13:31:26;;;;;;;15.88;2.35;;;;;;;27.55;27.10;99391.52;2224722;80;21082;-80
2022/06/03 13:34:25;;;;;;;7.65;1.80;;;;;;;27.67;26.44;99382.03;2225941;80;20935;-79
2022/06/03 13:37:25;;;;;;;4.03;1.85;;;;;;;27.77;26.78;99373.48;2225252;80;20978;-81
2022/06/03 13:40:26;;;;;;;243.48;20.10;;;;;;;27.79;26.50;99366.23;2225385;80;21090;-80
2022/06/03 13:43:26;;;;;;;7.37;2.02;;;;;;;27.84;27.25;99371.37;2225763;80;20971;-82
2022/06/03 13:46:27;;;;;;;1.90;1.67;;;;;;;27.77;26.71;99368.13;2225922;80;21022;-80
2022/06/03 13:49:27;;;;;;;2.17;1.62;;;;;;;27.77;26.71;99368.13;2225741;80;21026;-80
2022/06/03 13:52:27;;;;;;;1.62;1.40;;;;;;;27.71;26.07;99350.97;2225621;80;21010;-80
2022/06/03 13:55:28;;;;;;;4.00;1.55;;;;;;;27.61;26.18;99356.39;2226308;80;21252;-81
2022/06/03 13:58:28;;;;;;;4.78;1.52;;;;;;;27.42;27.15;99342.98;2275795;78;21057;-81
2022/06/03 14:01:29;;;;;;;2.52;1.40;;;;;;;27.62;27.86;99342.03;2287847;77;21036;-80
2022/06/03 14:04:29;;;;;;;1.70;1.60;;;;;;;27.75;27.51;99341.85;2288046;77;20976;-80
2022/06/03 14:07:29;;;;;;;1.55;1.45;;;;;;;27.77;27.23;99339.09;2287746;77;21056;-78
2022/06/03 14:10:30;;;;;;;1.70;1.60;;;;;;;27.72;27.28;99339.77;2287835;77;20914;-80
2022/06/03 14:13:30;;;;;;;45.78;4.35;;;;;;;27.71;27.21;99332.66;2288338;77;21251;-80
2022/06/03 14:16:31;;;;;;;9.25;2.10;;;;;;;27.88;27.22;99336.26;2288572;77;20999;-83
2022/06/03 14:19:32;;;;;;;23.42;3.30;;;;;;;27.97;25.97;99326.88;2291017;77;21292;-79
2022/06/03 14:22:32;;;;;;;6.42;2.17;;;;;;;27.71;25.91;99329.51;2289281;78;21039;-80
2022/06/03 14:25:32;;;;;;;1.98;1.60;;;;;;;27.58;26.40;99331.03;2289435;77;21333;-80
2022/06/03 14:28:32;;;;;;;1.98;1.60;;;;;;;27.58;26.89;99322.52;2289469;77;20945;-79
2022/06/03 14:31:33;;;;;;;3.27;1.85;;;;;;;27.50;26.87;99319.82;2291108;77;21088;-79
2022/06/03 14:34:33;;;;;;;4.22;1.70;;;;;;;27.41;26.97;99320.28;2290278;77;21325;-79